Richmond Hill, New York
Current Conditions -  °F | °C
As of 5:51 PM on Thursday 20 Nov 2014 (Local Time) from KJFK Reporting Station
Few Clouds Few Clouds  
Wind Chill: 36°   Ceiling: Unl
Heat Index: 44°   Visibility: 10mi
Dew Point: 19°   Wind: 18mph
Humidity: 37%   Direction: 270°W
Pressure: 29.91"   Gusts: 25mph
Location:  40.7°N, 73.83°W
Report Text: KJFK 202251Z 27016G22KT 10SM FEW070 07/M07 A2991 RMK AO2 SLP128 T00671072 $
Loading
Personal Weather Stations






























Interactive Weather Map New forecast layout! Learn more

10-Day Weather Forecast

Advertisements
Track Severe Weather on mobile